LFKS

Details ICAO LFKS (SOZ)
Name Solenzara
Region France
Timezone Europe/Paris (UTC+1.0)
Plans Departing 42
Arriving 48
Stats Elevation 27 ft / 8 m (AMSL)
Location 41.924616° 9.405323°
Runways 1
Magnetic Variation 2.451° E
Sunrise 2017-12-13 06:43:05 UTC / 2017-12-13 07:43:05 Local
Sunset 2017-12-13 15:52:53 UTC / 2017-12-13 16:52:53 Local
Advertisement - Login to hide

Runways

ID Width Length Bearing (true) Bearing (mag) Surface Threshold Offset Overrun Length
18 148 ft / 45 m 8,582 ft / 2,616 m 179.77° 177.32° Concrete 0 ft / 0 m 686 ft / 209 m
36 148 ft / 45 m 8,582 ft / 2,616 m 359.77° 357.32° Concrete 0 ft / 0 m 935 ft / 285 m

Approach Navaids

Runway Type Ident Frequency Range Bearing (true) Bearing (mag) Slope Elevation
18 Localiser SZA 109.10 MHz 27 nm / 50 km 178.95° 176.50° - 27 ft / 8 m (AMSL)
18 Glidescope SZA 109.10 MHz 27 nm / 50 km 178.95° 176.50° 2.50° 27 ft / 8 m (AMSL)

Map

Weather


0- 5 10 15 20 25 30 35+ Temperature / ° C

Clouds and Precipitation
Forecast for 2017-12-13 18:00 UTC. Updated 2 hours ago

Ground ~20,000 ft ~40,000 ft Winds

METAR

LFKS 131900Z AUTO 27006KT 230V340 CAVOK 12/01 Q1018

TAF

TAF LFKS 131636Z 1316/1415 CNL

Frequencies

Ground 122.10 MHz ZARA GND
Approach 119.90 MHz ZARA APP
Tower 118.35 MHz ZARA TWR
Warning: Do not use this data for real-world aviation or navigation. No guarantee of current accuracy is given.